sensor_id;sensor_type;location;lat;lon;timestamp;temperature;humidity
53520;DHT22;39397;53.204;5.778;2024-03-02T00:01:23;8.80;99.90
53520;DHT22;39397;53.204;5.778;2024-03-02T00:03:49;8.90;99.90
53520;DHT22;39397;53.204;5.778;2024-03-02T00:06:18;8.40;99.90
53520;DHT22;39397;53.204;5.778;2024-03-02T00:08:45;8.50;99.90
53520;DHT22;39397;53.204;5.778;2024-03-02T00:11:13;9.30;99.90
53520;DHT22;39397;53.204;5.778;2024-03-02T00:13:40;8.40;99.90
53520;DHT22;39397;53.204;5.778;2024-03-02T00:16:06;8.30;99.90
53520;DHT22;39397;53.204;5.778;2024-03-02T00:18:34;8.40;99.90
53520;DHT22;39397;53.204;5.778;2024-03-02T00:21:00;8.30;99.90
53520;DHT22;39397;53.204;5.778;2024-03-02T00:23:30;8.30;99.90
53520;DHT22;39397;53.204;5.778;2024-03-02T00:25:57;10.70;99.90
53520;DHT22;39397;53.204;5.778;2024-03-02T00:28:36;8.70;99.90
53520;DHT22;39397;53.204;5.778;2024-03-02T00:31:10;7.40;99.90
53520;DHT22;39397;53.204;5.778;2024-03-02T00:33:42;8.50;99.90
53520;DHT22;39397;53.204;5.778;2024-03-02T00:36:09;8.30;99.90
53520;DHT22;39397;53.204;5.778;2024-03-02T00:41:24;8.30;99.90
53520;DHT22;39397;53.204;5.778;2024-03-02T00:44:00;8.20;99.90
53520;DHT22;39397;53.204;5.778;2024-03-02T00:46:33;9.40;99.90
53520;DHT22;39397;53.204;5.778;2024-03-02T00:49:00;8.20;99.90
53520;DHT22;39397;53.204;5.778;2024-03-02T00:51:34;8.40;99.90
53520;DHT22;39397;53.204;5.778;2024-03-02T00:54:05;8.90;99.90
53520;DHT22;39397;53.204;5.778;2024-03-02T00:56:32;8.10;99.90
53520;DHT22;39397;53.204;5.778;2024-03-02T00:58:59;8.20;99.90
53520;DHT22;39397;53.204;5.778;2024-03-02T01:01:25;8.30;99.90
53520;DHT22;39397;53.204;5.778;2024-03-02T01:03:51;8.20;99.90
53520;DHT22;39397;53.204;5.778;2024-03-02T01:06:17;8.00;99.90
53520;DHT22;39397;53.204;5.778;2024-03-02T01:08:43;8.10;99.90
53520;DHT22;39397;53.204;5.778;2024-03-02T01:11:09;8.00;99.90
53520;DHT22;39397;53.204;5.778;2024-03-02T01:13:35;7.90;99.90
53520;DHT22;39397;53.204;5.778;2024-03-02T01:16:01;8.20;99.90
53520;DHT22;39397;53.204;5.778;2024-03-02T01:18:28;8.00;99.90
53520;DHT22;39397;53.204;5.778;2024-03-02T01:20:54;7.80;99.90
53520;DHT22;39397;53.204;5.778;2024-03-02T01:23:23;8.00;99.90
53520;DHT22;39397;53.204;5.778;2024-03-02T01:25:49;8.00;99.90
53520;DHT22;39397;53.204;5.778;2024-03-02T01:28:16;8.00;99.90
53520;DHT22;39397;53.204;5.778;2024-03-02T01:30:44;8.80;99.90
53520;DHT22;39397;53.204;5.778;2024-03-02T01:33:17;8.80;99.90
53520;DHT22;39397;53.204;5.778;2024-03-02T01:35:43;8.60;99.90
53520;DHT22;39397;53.204;5.778;2024-03-02T01:38:09;9.00;99.90
53520;DHT22;39397;53.204;5.778;2024-03-02T01:40:36;8.30;99.90
53520;DHT22;39397;53.204;5.778;2024-03-02T01:43:04;8.50;99.90
53520;DHT22;39397;53.204;5.778;2024-03-02T01:45:30;8.30;99.90
53520;DHT22;39397;53.204;5.778;2024-03-02T01:47:56;8.70;99.90
53520;DHT22;39397;53.204;5.778;2024-03-02T01:50:29;8.50;99.90
53520;DHT22;39397;53.204;5.778;2024-03-02T01:52:56;8.80;99.90
53520;DHT22;39397;53.204;5.778;2024-03-02T01:55:22;8.80;99.90
53520;DHT22;39397;53.204;5.778;2024-03-02T01:57:49;8.70;99.90
53520;DHT22;39397;53.204;5.778;2024-03-02T02:00:16;8.70;99.90
53520;DHT22;39397;53.204;5.778;2024-03-02T02:02:43;8.20;99.90
53520;DHT22;39397;53.204;5.778;2024-03-02T02:05:09;8.70;99.90
53520;DHT22;39397;53.204;5.778;2024-03-02T02:07:42;8.70;99.90
53520;DHT22;39397;53.204;5.778;2024-03-02T02:10:11;9.30;99.90
53520;DHT22;39397;53.204;5.778;2024-03-02T02:12:38;8.90;99.90
53520;DHT22;39397;53.204;5.778;2024-03-02T02:15:27;7.80;99.90
53520;DHT22;39397;53.204;5.778;2024-03-02T02:17:54;9.00;99.90
53520;DHT22;39397;53.204;5.778;2024-03-02T02:20:22;8.90;99.90
53520;DHT22;39397;53.204;5.778;2024-03-02T02:22:59;8.80;99.90
53520;DHT22;39397;53.204;5.778;2024-03-02T02:25:26;9.40;99.90
53520;DHT22;39397;53.204;5.778;2024-03-02T02:27:52;9.00;99.90
53520;DHT22;39397;53.204;5.778;2024-03-02T02:30:20;9.30;99.90
53520;DHT22;39397;53.204;5.778;2024-03-02T02:32:46;9.60;99.90
53520;DHT22;39397;53.204;5.778;2024-03-02T02:35:12;9.00;99.90
53520;DHT22;39397;53.204;5.778;2024-03-02T02:37:38;8.90;99.90
53520;DHT22;39397;53.204;5.778;2024-03-02T02:40:04;8.80;99.90
53520;DHT22;39397;53.204;5.778;2024-03-02T02:42:30;8.90;99.90
53520;DHT22;39397;53.204;5.778;2024-03-02T02:44:56;9.00;99.90
53520;DHT22;39397;53.204;5.778;2024-03-02T02:47:22;9.00;99.90
53520;DHT22;39397;53.204;5.778;2024-03-02T02:49:47;9.00;99.90
53520;DHT22;39397;53.204;5.778;2024-03-02T02:52:13;7.40;99.90
53520;DHT22;39397;53.204;5.778;2024-03-02T02:54:39;9.10;99.90
53520;DHT22;39397;53.204;5.778;2024-03-02T02:57:09;10.10;99.90
53520;DHT22;39397;53.204;5.778;2024-03-02T02:59:37;8.90;99.90
53520;DHT22;39397;53.204;5.778;2024-03-02T03:02:03;8.80;99.90
53520;DHT22;39397;53.204;5.778;2024-03-02T03:04:29;8.90;99.90
53520;DHT22;39397;53.204;5.778;2024-03-02T03:06:55;8.70;99.90
53520;DHT22;39397;53.204;5.778;2024-03-02T03:09:20;8.70;99.90
53520;DHT22;39397;53.204;5.778;2024-03-02T03:11:49;8.90;99.90
53520;DHT22;39397;53.204;5.778;2024-03-02T03:14:14;9.20;99.90
53520;DHT22;39397;53.204;5.778;2024-03-02T03:16:40;8.60;99.90
53520;DHT22;39397;53.204;5.778;2024-03-02T03:19:06;8.60;99.90
53520;DHT22;39397;53.204;5.778;2024-03-02T03:21:32;9.80;99.90
53520;DHT22;39397;53.204;5.778;2024-03-02T03:23:57;8.80;99.90
53520;DHT22;39397;53.204;5.778;2024-03-02T03:26:23;8.90;99.90
53520;DHT22;39397;53.204;5.778;2024-03-02T03:28:49;8.70;99.90
53520;DHT22;39397;53.204;5.778;2024-03-02T03:31:14;8.50;99.90
53520;DHT22;39397;53.204;5.778;2024-03-02T03:33:40;8.40;99.90
53520;DHT22;39397;53.204;5.778;2024-03-02T03:36:06;9.10;99.90
53520;DHT22;39397;53.204;5.778;2024-03-02T03:38:32;8.50;99.90
53520;DHT22;39397;53.204;5.778;2024-03-02T03:41:00;9.00;99.90
53520;DHT22;39397;53.204;5.778;2024-03-02T03:43:26;8.80;99.90
53520;DHT22;39397;53.204;5.778;2024-03-02T03:45:52;8.40;99.90
53520;DHT22;39397;53.204;5.778;2024-03-02T03:48:17;8.30;99.90
53520;DHT22;39397;53.204;5.778;2024-03-02T03:50:44;7.30;99.90
53520;DHT22;39397;53.204;5.778;2024-03-02T03:53:10;8.30;99.90
53520;DHT22;39397;53.204;5.778;2024-03-02T03:55:36;9.40;99.90
53520;DHT22;39397;53.204;5.778;2024-03-02T03:58:05;8.70;99.90
53520;DHT22;39397;53.204;5.778;2024-03-02T04:00:30;8.50;99.90
53520;DHT22;39397;53.204;5.778;2024-03-02T04:02:56;8.30;99.90
53520;DHT22;39397;53.204;5.778;2024-03-02T04:05:22;8.20;99.90
53520;DHT22;39397;53.204;5.778;2024-03-02T04:07:48;6.90;99.90
53520;DHT22;39397;53.204;5.778;2024-03-02T04:10:14;8.10;99.90
53520;DHT22;39397;53.204;5.778;2024-03-02T04:12:42;8.00;99.90
53520;DHT22;39397;53.204;5.778;2024-03-02T04:15:08;8.00;99.90
53520;DHT22;39397;53.204;5.778;2024-03-02T04:17:34;7.90;99.90
53520;DHT22;39397;53.204;5.778;2024-03-02T04:20:01;8.50;99.90
53520;DHT22;39397;53.204;5.778;2024-03-02T04:22:27;8.20;99.90
53520;DHT22;39397;53.204;5.778;2024-03-02T04:24:53;8.00;99.90
53520;DHT22;39397;53.204;5.778;2024-03-02T04:27:19;10.00;99.90
53520;DHT22;39397;53.204;5.778;2024-03-02T04:29:45;7.80;99.90
53520;DHT22;39397;53.204;5.778;2024-03-02T04:32:11;8.50;99.90
53520;DHT22;39397;53.204;5.778;2024-03-02T04:34:39;7.70;99.90
53520;DHT22;39397;53.204;5.778;2024-03-02T04:37:05;7.80;99.90
53520;DHT22;39397;53.204;5.778;2024-03-02T04:39:31;8.00;99.90
53520;DHT22;39397;53.204;5.778;2024-03-02T04:41:56;7.70;99.90
53520;DHT22;39397;53.204;5.778;2024-03-02T04:44:26;8.90;99.90
53520;DHT22;39397;53.204;5.778;2024-03-02T04:46:52;8.90;99.90
53520;DHT22;39397;53.204;5.778;2024-03-02T04:49:18;9.20;99.90
53520;DHT22;39397;53.204;5.778;2024-03-02T04:51:43;7.60;99.90
53520;DHT22;39397;53.204;5.778;2024-03-02T04:54:09;7.50;99.90
53520;DHT22;39397;53.204;5.778;2024-03-02T04:56:42;8.80;99.90
53520;DHT22;39397;53.204;5.778;2024-03-02T04:59:18;7.50;99.90
53520;DHT22;39397;53.204;5.778;2024-03-02T05:01:44;7.50;99.90
53520;DHT22;39397;53.204;5.778;2024-03-02T05:04:10;9.10;99.90
53520;DHT22;39397;53.204;5.778;2024-03-02T05:06:39;7.50;99.90
53520;DHT22;39397;53.204;5.778;2024-03-02T05:09:08;7.50;99.90
53520;DHT22;39397;53.204;5.778;2024-03-02T05:11:34;7.30;99.90
53520;DHT22;39397;53.204;5.778;2024-03-02T05:14:20;7.70;99.90
53520;DHT22;39397;53.204;5.778;2024-03-02T05:16:46;8.10;99.90
53520;DHT22;39397;53.204;5.778;2024-03-02T05:19:12;9.40;99.90
53520;DHT22;39397;53.204;5.778;2024-03-02T05:21:37;7.60;99.90
53520;DHT22;39397;53.204;5.778;2024-03-02T05:24:03;7.10;99.90
53520;DHT22;39397;53.204;5.778;2024-03-02T05:26:29;7.00;99.90
53520;DHT22;39397;53.204;5.778;2024-03-02T05:28:55;6.90;99.90
53520;DHT22;39397;53.204;5.778;2024-03-02T05:31:21;8.20;99.90
53520;DHT22;39397;53.204;5.778;2024-03-02T05:33:46;7.10;99.90
53520;DHT22;39397;53.204;5.778;2024-03-02T05:36:12;6.70;99.90
53520;DHT22;39397;53.204;5.778;2024-03-02T05:38:38;7.20;99.90
53520;DHT22;39397;53.204;5.778;2024-03-02T05:41:04;6.50;99.90
53520;DHT22;39397;53.204;5.778;2024-03-02T05:43:30;7.20;99.90
53520;DHT22;39397;53.204;5.778;2024-03-02T05:45:56;7.00;99.90
53520;DHT22;39397;53.204;5.778;2024-03-02T05:48:21;7.20;99.90
53520;DHT22;39397;53.204;5.778;2024-03-02T05:50:50;7.00;99.90
53520;DHT22;39397;53.204;5.778;2024-03-02T05:53:15;7.00;99.90
53520;DHT22;39397;53.204;5.778;2024-03-02T05:55:41;7.10;99.90
53520;DHT22;39397;53.204;5.778;2024-03-02T05:58:07;7.90;99.90
53520;DHT22;39397;53.204;5.778;2024-03-02T06:00:51;7.20;99.90
53520;DHT22;39397;53.204;5.778;2024-03-02T06:03:17;7.70;99.90
53520;DHT22;39397;53.204;5.778;2024-03-02T06:05:42;6.90;99.90
53520;DHT22;39397;53.204;5.778;2024-03-02T06:08:08;7.70;99.90
53520;DHT22;39397;53.204;5.778;2024-03-02T06:10:34;8.20;99.90
53520;DHT22;39397;53.204;5.778;2024-03-02T06:13:00;6.80;99.90
53520;DHT22;39397;53.204;5.778;2024-03-02T06:15:25;7.70;99.90
53520;DHT22;39397;53.204;5.778;2024-03-02T06:17:51;6.50;99.90
53520;DHT22;39397;53.204;5.778;2024-03-02T06:20:17;7.80;99.90
53520;DHT22;39397;53.204;5.778;2024-03-02T06:22:42;7.60;99.90
53520;DHT22;39397;53.204;5.778;2024-03-02T06:28:12;5.70;99.90
53520;DHT22;39397;53.204;5.778;2024-03-02T06:30:43;5.70;99.90
53520;DHT22;39397;53.204;5.778;2024-03-02T06:33:09;5.90;99.90
53520;DHT22;39397;53.204;5.778;2024-03-02T06:35:35;5.60;99.90
53520;DHT22;39397;53.204;5.778;2024-03-02T06:38:03;5.60;99.90
53520;DHT22;39397;53.204;5.778;2024-03-02T06:40:29;6.70;99.90
53520;DHT22;39397;53.204;5.778;2024-03-02T06:42:55;5.80;99.90
53520;DHT22;39397;53.204;5.778;2024-03-02T06:45:20;6.70;99.90
53520;DHT22;39397;53.204;5.778;2024-03-02T06:47:46;7.00;99.90
53520;DHT22;39397;53.204;5.778;2024-03-02T06:50:13;5.60;99.90
53520;DHT22;39397;53.204;5.778;2024-03-02T06:52:47;5.50;99.90
53520;DHT22;39397;53.204;5.778;2024-03-02T06:55:13;5.40;99.90
53520;DHT22;39397;53.204;5.778;2024-03-02T06:57:39;5.50;99.90
53520;DHT22;39397;53.204;5.778;2024-03-02T07:00:05;5.60;99.90
53520;DHT22;39397;53.204;5.778;2024-03-02T07:02:34;5.50;99.90
53520;DHT22;39397;53.204;5.778;2024-03-02T07:05:00;6.10;99.90
53520;DHT22;39397;53.204;5.778;2024-03-02T07:07:26;7.20;99.90
53520;DHT22;39397;53.204;5.778;2024-03-02T07:09:51;6.40;99.90
53520;DHT22;39397;53.204;5.778;2024-03-02T07:12:23;6.80;99.90
53520;DHT22;39397;53.204;5.778;2024-03-02T07:14:49;7.40;99.90
53520;DHT22;39397;53.204;5.778;2024-03-02T07:17:37;6.20;99.90
53520;DHT22;39397;53.204;5.778;2024-03-02T07:20:03;6.90;99.90
53520;DHT22;39397;53.204;5.778;2024-03-02T07:22:32;5.70;99.90
53520;DHT22;39397;53.204;5.778;2024-03-02T07:24:58;5.90;99.90
53520;DHT22;39397;53.204;5.778;2024-03-02T07:27:24;5.80;99.90
53520;DHT22;39397;53.204;5.778;2024-03-02T07:29:53;6.60;99.90
53520;DHT22;39397;53.204;5.778;2024-03-02T07:32:19;7.10;99.90
53520;DHT22;39397;53.204;5.778;2024-03-02T07:34:44;5.80;99.90
53520;DHT22;39397;53.204;5.778;2024-03-02T07:37:10;6.10;99.90
53520;DHT22;39397;53.204;5.778;2024-03-02T07:39:36;7.40;99.90
53520;DHT22;39397;53.204;5.778;2024-03-02T07:42:03;7.10;99.90
53520;DHT22;39397;53.204;5.778;2024-03-02T07:44:29;6.10;99.90
53520;DHT22;39397;53.204;5.778;2024-03-02T07:46:55;6.00;99.90
53520;DHT22;39397;53.204;5.778;2024-03-02T07:49:21;7.00;99.90
53520;DHT22;39397;53.204;5.778;2024-03-02T07:51:46;6.50;99.90
53520;DHT22;39397;53.204;5.778;2024-03-02T07:54:12;6.40;99.90
53520;DHT22;39397;53.204;5.778;2024-03-02T07:56:38;6.80;99.90
53520;DHT22;39397;53.204;5.778;2024-03-02T07:59:04;7.50;99.90
53520;DHT22;39397;53.204;5.778;2024-03-02T08:01:31;7.60;99.90
53520;DHT22;39397;53.204;5.778;2024-03-02T08:03:57;6.30;99.90
53520;DHT22;39397;53.204;5.778;2024-03-02T08:06:25;7.70;99.90
53520;DHT22;39397;53.204;5.778;2024-03-02T08:09:02;7.60;99.90
53520;DHT22;39397;53.204;5.778;2024-03-02T08:11:30;6.50;99.90
53520;DHT22;39397;53.204;5.778;2024-03-02T08:13:56;6.40;99.90
53520;DHT22;39397;53.204;5.778;2024-03-02T08:16:25;6.50;99.90
53520;DHT22;39397;53.204;5.778;2024-03-02T08:18:52;6.90;99.90
53520;DHT22;39397;53.204;5.778;2024-03-02T08:21:18;7.30;99.90
53520;DHT22;39397;53.204;5.778;2024-03-02T08:23:44;7.90;99.90
53520;DHT22;39397;53.204;5.778;2024-03-02T08:26:10;8.60;99.90
53520;DHT22;39397;53.204;5.778;2024-03-02T08:28:37;7.90;99.90
53520;DHT22;39397;53.204;5.778;2024-03-02T08:31:03;7.70;99.90
53520;DHT22;39397;53.204;5.778;2024-03-02T08:33:29;7.00;99.90
53520;DHT22;39397;53.204;5.778;2024-03-02T08:35:55;7.90;99.90
53520;DHT22;39397;53.204;5.778;2024-03-02T08:38:21;7.10;99.90
53520;DHT22;39397;53.204;5.778;2024-03-02T08:40:47;8.30;99.90
53520;DHT22;39397;53.204;5.778;2024-03-02T08:43:13;7.50;99.90
53520;DHT22;39397;53.204;5.778;2024-03-02T08:45:39;7.20;99.90
53520;DHT22;39397;53.204;5.778;2024-03-02T08:48:07;7.60;99.90
53520;DHT22;39397;53.204;5.778;2024-03-02T08:50:36;7.30;99.90
53520;DHT22;39397;53.204;5.778;2024-03-02T08:53:03;7.50;99.90
53520;DHT22;39397;53.204;5.778;2024-03-02T08:55:29;7.40;99.90
53520;DHT22;39397;53.204;5.778;2024-03-02T08:57:55;7.80;99.90
53520;DHT22;39397;53.204;5.778;2024-03-02T09:00:21;7.90;99.90
53520;DHT22;39397;53.204;5.778;2024-03-02T09:02:47;8.90;99.90
53520;DHT22;39397;53.204;5.778;2024-03-02T09:05:13;7.90;99.90
53520;DHT22;39397;53.204;5.778;2024-03-02T09:07:38;8.20;99.90
53520;DHT22;39397;53.204;5.778;2024-03-02T09:10:05;7.90;99.90
53520;DHT22;39397;53.204;5.778;2024-03-02T09:12:32;8.00;99.90
53520;DHT22;39397;53.204;5.778;2024-03-02T09:14:58;8.80;99.90
53520;DHT22;39397;53.204;5.778;2024-03-02T09:17:24;8.20;99.90
53520;DHT22;39397;53.204;5.778;2024-03-02T09:19:49;8.40;99.90
53520;DHT22;39397;53.204;5.778;2024-03-02T09:22:19;8.30;99.90
53520;DHT22;39397;53.204;5.778;2024-03-02T09:24:44;8.30;99.90
53520;DHT22;39397;53.204;5.778;2024-03-02T09:27:10;8.70;99.90
53520;DHT22;39397;53.204;5.778;2024-03-02T09:29:36;8.40;99.90
53520;DHT22;39397;53.204;5.778;2024-03-02T09:32:02;8.40;99.90
53520;DHT22;39397;53.204;5.778;2024-03-02T09:34:28;8.40;99.90
53520;DHT22;39397;53.204;5.778;2024-03-02T09:36:54;8.50;99.90
53520;DHT22;39397;53.204;5.778;2024-03-02T09:39:19;8.70;99.90
53520;DHT22;39397;53.204;5.778;2024-03-02T09:41:45;8.80;99.90
53520;DHT22;39397;53.204;5.778;2024-03-02T09:44:12;8.90;99.90
53520;DHT22;39397;53.204;5.778;2024-03-02T09:46:38;8.90;99.90
53520;DHT22;39397;53.204;5.778;2024-03-02T09:49:04;8.90;99.90
53520;DHT22;39397;53.204;5.778;2024-03-02T09:51:31;8.90;99.90
53520;DHT22;39397;53.204;5.778;2024-03-02T09:53:56;9.00;99.90
53520;DHT22;39397;53.204;5.778;2024-03-02T09:56:22;9.10;99.90
53520;DHT22;39397;53.204;5.778;2024-03-02T09:58:48;9.30;99.90
53520;DHT22;39397;53.204;5.778;2024-03-02T10:01:14;9.10;99.90
53520;DHT22;39397;53.204;5.778;2024-03-02T10:03:42;9.20;99.90
53520;DHT22;39397;53.204;5.778;2024-03-02T10:06:28;9.70;99.90
53520;DHT22;39397;53.204;5.778;2024-03-02T10:08:55;9.40;99.90
53520;DHT22;39397;53.204;5.778;2024-03-02T10:11:31;9.30;99.90
53520;DHT22;39397;53.204;5.778;2024-03-02T10:14:08;10.30;99.90
53520;DHT22;39397;53.204;5.778;2024-03-02T10:16:39;9.40;99.90
53520;DHT22;39397;53.204;5.778;2024-03-02T10:19:19;9.40;99.90
53520;DHT22;39397;53.204;5.778;2024-03-02T10:21:46;9.50;99.90
53520;DHT22;39397;53.204;5.778;2024-03-02T10:24:12;9.60;99.90
53520;DHT22;39397;53.204;5.778;2024-03-02T10:26:38;9.60;99.90
53520;DHT22;39397;53.204;5.778;2024-03-02T10:29:04;10.80;99.90
53520;DHT22;39397;53.204;5.778;2024-03-02T10:31:30;9.70;99.90
53520;DHT22;39397;53.204;5.778;2024-03-02T10:33:57;9.70;99.90
53520;DHT22;39397;53.204;5.778;2024-03-02T10:36:23;9.90;99.90
53520;DHT22;39397;53.204;5.778;2024-03-02T10:38:49;9.80;99.90
53520;DHT22;39397;53.204;5.778;2024-03-02T10:41:26;10.10;99.90
53520;DHT22;39397;53.204;5.778;2024-03-02T10:43:56;9.90;99.90
53520;DHT22;39397;53.204;5.778;2024-03-02T10:46:28;10.10;99.90
53520;DHT22;39397;53.204;5.778;2024-03-02T10:48:56;10.00;99.90
53520;DHT22;39397;53.204;5.778;2024-03-02T10:51:25;10.10;99.90
53520;DHT22;39397;53.204;5.778;2024-03-02T10:53:54;10.20;99.90
53520;DHT22;39397;53.204;5.778;2024-03-02T10:56:26;10.30;99.90
53520;DHT22;39397;53.204;5.778;2024-03-02T11:01:43;10.20;99.90
53520;DHT22;39397;53.204;5.778;2024-03-02T11:04:09;10.30;99.90
53520;DHT22;39397;53.204;5.778;2024-03-02T11:06:36;10.40;99.90
53520;DHT22;39397;53.204;5.778;2024-03-02T11:09:07;10.40;99.90
53520;DHT22;39397;53.204;5.778;2024-03-02T11:11:37;10.40;99.90
53520;DHT22;39397;53.204;5.778;2024-03-02T11:14:07;10.40;99.90
53520;DHT22;39397;53.204;5.778;2024-03-02T11:16:38;11.60;99.90
53520;DHT22;39397;53.204;5.778;2024-03-02T11:19:08;10.60;99.90
53520;DHT22;39397;53.204;5.778;2024-03-02T11:21:37;10.60;99.90
53520;DHT22;39397;53.204;5.778;2024-03-02T11:26:53;10.90;99.90
53520;DHT22;39397;53.204;5.778;2024-03-02T11:32:22;10.90;99.90
53520;DHT22;39397;53.204;5.778;2024-03-02T11:34:51;11.00;99.90
53520;DHT22;39397;53.204;5.778;2024-03-02T11:37:18;11.30;99.90
53520;DHT22;39397;53.204;5.778;2024-03-02T11:39:44;11.10;99.90
53520;DHT22;39397;53.204;5.778;2024-03-02T11:42:14;11.10;99.90
53520;DHT22;39397;53.204;5.778;2024-03-02T11:44:46;11.70;99.90
53520;DHT22;39397;53.204;5.778;2024-03-02T11:47:14;11.60;99.90
53520;DHT22;39397;53.204;5.778;2024-03-02T11:49:49;12.00;99.90
53520;DHT22;39397;53.204;5.778;2024-03-02T11:52:16;11.40;99.90
53520;DHT22;39397;53.204;5.778;2024-03-02T11:54:45;11.30;99.90
53520;DHT22;39397;53.204;5.778;2024-03-02T11:57:20;11.30;99.90
53520;DHT22;39397;53.204;5.778;2024-03-02T11:59:48;12.00;99.90
53520;DHT22;39397;53.204;5.778;2024-03-02T12:02:20;11.40;99.90
53520;DHT22;39397;53.204;5.778;2024-03-02T12:04:47;11.40;99.90
53520;DHT22;39397;53.204;5.778;2024-03-02T12:07:19;11.50;99.90
53520;DHT22;39397;53.204;5.778;2024-03-02T12:09:49;11.60;99.90
53520;DHT22;39397;53.204;5.778;2024-03-02T12:12:24;11.60;99.90
53520;DHT22;39397;53.204;5.778;2024-03-02T12:14:51;11.70;99.90
53520;DHT22;39397;53.204;5.778;2024-03-02T12:17:18;11.70;99.90
53520;DHT22;39397;53.204;5.778;2024-03-02T12:19:44;11.90;99.90
53520;DHT22;39397;53.204;5.778;2024-03-02T12:22:10;11.80;99.90
53520;DHT22;39397;53.204;5.778;2024-03-02T12:24:36;11.60;99.90
53520;DHT22;39397;53.204;5.778;2024-03-02T12:27:04;12.00;99.90
53520;DHT22;39397;53.204;5.778;2024-03-02T12:29:30;11.80;99.90
53520;DHT22;39397;53.204;5.778;2024-03-02T12:31:56;12.10;99.90
53520;DHT22;39397;53.204;5.778;2024-03-02T12:34:22;11.90;99.90
53520;DHT22;39397;53.204;5.778;2024-03-02T12:36:49;11.70;99.90
53520;DHT22;39397;53.204;5.778;2024-03-02T12:39:18;11.80;99.90
53520;DHT22;39397;53.204;5.778;2024-03-02T12:41:44;11.80;99.90
53520;DHT22;39397;53.204;5.778;2024-03-02T12:44:10;11.90;99.90
53520;DHT22;39397;53.204;5.778;2024-03-02T12:46:36;11.90;99.90
53520;DHT22;39397;53.204;5.778;2024-03-02T12:49:08;11.90;99.90
53520;DHT22;39397;53.204;5.778;2024-03-02T12:51:37;11.80;99.90
53520;DHT22;39397;53.204;5.778;2024-03-02T12:54:03;11.90;99.90
53520;DHT22;39397;53.204;5.778;2024-03-02T12:56:30;12.00;99.90
53520;DHT22;39397;53.204;5.778;2024-03-02T12:58:56;12.10;99.90
53520;DHT22;39397;53.204;5.778;2024-03-02T13:01:23;12.30;99.90
53520;DHT22;39397;53.204;5.778;2024-03-02T13:03:49;12.20;99.90
53520;DHT22;39397;53.204;5.778;2024-03-02T13:06:19;12.30;99.90
53520;DHT22;39397;53.204;5.778;2024-03-02T13:08:45;12.30;99.90
53520;DHT22;39397;53.204;5.778;2024-03-02T13:11:12;12.20;99.90
53520;DHT22;39397;53.204;5.778;2024-03-02T13:13:39;12.40;99.90
53520;DHT22;39397;53.204;5.778;2024-03-02T13:16:12;12.40;99.90
53520;DHT22;39397;53.204;5.778;2024-03-02T13:18:41;12.50;99.90
53520;DHT22;39397;53.204;5.778;2024-03-02T13:21:09;12.50;99.90
53520;DHT22;39397;53.204;5.778;2024-03-02T13:23:35;12.50;99.90
53520;DHT22;39397;53.204;5.778;2024-03-02T13:26:01;12.60;99.90
53520;DHT22;39397;53.204;5.778;2024-03-02T13:28:27;12.60;99.90
53520;DHT22;39397;53.204;5.778;2024-03-02T13:30:53;12.80;99.90
53520;DHT22;39397;53.204;5.778;2024-03-02T13:33:19;12.60;99.90
53520;DHT22;39397;53.204;5.778;2024-03-02T13:35:51;12.70;99.90
53520;DHT22;39397;53.204;5.778;2024-03-02T13:38:20;12.70;99.90
53520;DHT22;39397;53.204;5.778;2024-03-02T13:40:49;12.90;99.90
53520;DHT22;39397;53.204;5.778;2024-03-02T13:43:18;12.60;99.90
53520;DHT22;39397;53.204;5.778;2024-03-02T13:45:49;12.60;99.90
53520;DHT22;39397;53.204;5.778;2024-03-02T13:48:15;12.70;99.90
53520;DHT22;39397;53.204;5.778;2024-03-02T13:50:40;13.00;99.90
53520;DHT22;39397;53.204;5.778;2024-03-02T13:53:07;12.00;99.90
53520;DHT22;39397;53.204;5.778;2024-03-02T13:55:34;12.80;99.90
53520;DHT22;39397;53.204;5.778;2024-03-02T13:58:00;12.70;99.90
53520;DHT22;39397;53.204;5.778;2024-03-02T14:00:25;12.80;99.90
53520;DHT22;39397;53.204;5.778;2024-03-02T14:02:51;12.80;99.90
53520;DHT22;39397;53.204;5.778;2024-03-02T14:05:18;12.70;99.90
53520;DHT22;39397;53.204;5.778;2024-03-02T14:07:44;12.80;99.90
53520;DHT22;39397;53.204;5.778;2024-03-02T14:10:10;12.90;99.90
53520;DHT22;39397;53.204;5.778;2024-03-02T14:12:37;12.90;99.90
53520;DHT22;39397;53.204;5.778;2024-03-02T14:15:03;13.10;99.90
53520;DHT22;39397;53.204;5.778;2024-03-02T14:17:29;12.90;99.90
53520;DHT22;39397;53.204;5.778;2024-03-02T14:19:57;13.00;99.90
53520;DHT22;39397;53.204;5.778;2024-03-02T14:22:24;13.20;99.90
53520;DHT22;39397;53.204;5.778;2024-03-02T14:24:50;13.00;99.90
53520;DHT22;39397;53.204;5.778;2024-03-02T14:27:16;13.20;99.90
53520;DHT22;39397;53.204;5.778;2024-03-02T14:29:45;13.10;99.90
53520;DHT22;39397;53.204;5.778;2024-03-02T14:32:11;13.20;99.90
53520;DHT22;39397;53.204;5.778;2024-03-02T14:34:36;13.10;99.90
53520;DHT22;39397;53.204;5.778;2024-03-02T14:37:04;13.00;99.90
53520;DHT22;39397;53.204;5.778;2024-03-02T14:39:29;13.10;99.90
53520;DHT22;39397;53.204;5.778;2024-03-02T14:42:00;13.10;99.90
53520;DHT22;39397;53.204;5.778;2024-03-02T14:44:26;12.90;99.90
53520;DHT22;39397;53.204;5.778;2024-03-02T14:46:52;12.90;99.90
53520;DHT22;39397;53.204;5.778;2024-03-02T14:49:18;12.80;99.90
53520;DHT22;39397;53.204;5.778;2024-03-02T14:51:44;12.80;99.90
53520;DHT22;39397;53.204;5.778;2024-03-02T14:54:09;12.80;99.90
53520;DHT22;39397;53.204;5.778;2024-03-02T14:56:35;12.80;99.90
53520;DHT22;39397;53.204;5.778;2024-03-02T14:59:01;12.70;99.90
53520;DHT22;39397;53.204;5.778;2024-03-02T15:01:26;12.70;99.90
53520;DHT22;39397;53.204;5.778;2024-03-02T15:03:52;12.70;99.90
53520;DHT22;39397;53.204;5.778;2024-03-02T15:06:18;12.60;99.90
53520;DHT22;39397;53.204;5.778;2024-03-02T15:08:44;12.50;99.90
53520;DHT22;39397;53.204;5.778;2024-03-02T15:11:12;12.60;99.90
53520;DHT22;39397;53.204;5.778;2024-03-02T15:13:38;12.50;99.90
53520;DHT22;39397;53.204;5.778;2024-03-02T15:16:04;12.50;99.90
53520;DHT22;39397;53.204;5.778;2024-03-02T15:18:30;12.40;99.90
53520;DHT22;39397;53.204;5.778;2024-03-02T15:20:56;12.30;99.90
53520;DHT22;39397;53.204;5.778;2024-03-02T15:23:21;12.90;99.90
53520;DHT22;39397;53.204;5.778;2024-03-02T15:25:47;12.20;99.90
53520;DHT22;39397;53.204;5.778;2024-03-02T15:28:13;12.20;99.90
53520;DHT22;39397;53.204;5.778;2024-03-02T15:30:39;12.10;99.90
53520;DHT22;39397;53.204;5.778;2024-03-02T15:33:05;12.10;99.90
53520;DHT22;39397;53.204;5.778;2024-03-02T15:35:30;12.00;99.90
53520;DHT22;39397;53.204;5.778;2024-03-02T15:37:56;12.00;99.90
53520;DHT22;39397;53.204;5.778;2024-03-02T15:40:22;12.30;99.90
53520;DHT22;39397;53.204;5.778;2024-03-02T15:42:48;11.90;99.90
53520;DHT22;39397;53.204;5.778;2024-03-02T15:45:13;11.90;99.90
53520;DHT22;39397;53.204;5.778;2024-03-02T15:47:39;11.90;99.90
53520;DHT22;39397;53.204;5.778;2024-03-02T15:50:05;11.90;99.90
53520;DHT22;39397;53.204;5.778;2024-03-02T15:52:32;12.00;99.90
53520;DHT22;39397;53.204;5.778;2024-03-02T15:54:58;11.90;99.90